Time;durP1;ratioP1;P1;durP2;ratioP2;P2;SDS_P1;SDS_P2;PMS_P1;PMS_P2;Temp;Humidity;BMP_temperature;BMP_pressure;BME280_temperature;BME280_humidity;BME280_pressure;Samples;Min_cycle;Max_cycle;Signal;HPM_P1;HPM_P2
2022/04/30 00:02:13;;;;;;;9.55;4.60;;;;;;;;;;5028038;28;20726;-63
2022/04/30 00:04:39;;;;;;;12.27;6.13;;;;;;;;;;5022349;28;20212;-63
2022/04/30 00:07:04;;;;;;;11.25;7.15;;;;;;;;;;5003151;28;20701;-62
2022/04/30 00:09:30;;;;;;;10.30;6.45;;;;;;;;;;5001499;28;20215;-63
2022/04/30 00:11:55;;;;;;;9.45;5.13;;;;;;;;;;5031682;28;20554;-63
2022/04/30 00:14:20;;;;;;;15.88;7.10;;;;;;;;;;5032635;28;20235;-63
2022/04/30 00:16:46;;;;;;;11.25;6.13;;;;;;;;;;5036848;28;20303;-62
2022/04/30 00:19:11;;;;;;;9.57;5.35;;;;;;;;;;5041083;28;20298;-63
2022/04/30 00:21:37;;;;;;;10.70;5.57;;;;;;;;;;5041396;28;20226;-63
2022/04/30 00:24:02;;;;;;;14.75;7.63;;;;;;;;;;5013260;28;20219;-62
2022/04/30 00:26:27;;;;;;;10.57;5.60;;;;;;;;;;5025668;28;20713;-63
2022/04/30 00:28:53;;;;;;;9.05;5.57;;;;;;;;;;5021603;28;20207;-63
2022/04/30 00:31:18;;;;;;;12.00;5.72;;;;;;;;;;5021625;28;20212;-62
2022/04/30 00:33:47;;;;;;;12.48;6.68;;;;;;;;;;5014131;28;20686;-62
2022/04/30 00:36:14;;;;;;;12.80;5.70;;;;;;;;;;4998263;28;20834;-62
2022/04/30 00:38:39;;;;;;;10.13;5.70;;;;;;;;;;5034451;28;20327;-62
2022/04/30 00:41:06;;;;;;;11.70;6.28;;;;;;;;;;5022472;28;20691;-62
2022/04/30 00:43:31;;;;;;;12.38;7.50;;;;;;;;;;5040861;28;20234;-63
2022/04/30 00:45:56;;;;;;;11.45;5.07;;;;;;;;;;5041688;28;20681;-62
2022/04/30 00:48:21;;;;;;;12.80;6.22;;;;;;;;;;5040867;28;20207;-62
2022/04/30 00:50:47;;;;;;;10.48;5.82;;;;;;;;;;5021516;28;20671;-63
2022/04/30 00:53:12;;;;;;;9.95;5.93;;;;;;;;;;5021138;28;20377;-63
2022/04/30 00:55:38;;;;;;;13.27;6.65;;;;;;;;;;5034702;28;20626;-63
2022/04/30 00:58:04;;;;;;;11.85;6.50;;;;;;;;;;5001652;28;20735;-63
2022/04/30 01:00:30;;;;;;;13.25;6.15;;;;;;;;;;5033435;28;20211;-63
2022/04/30 01:02:55;;;;;;;12.60;6.95;;;;;;;;;;5019269;28;20743;-63
2022/04/30 01:05:20;;;;;;;10.30;6.05;;;;;;;;;;5040513;28;20737;-63
2022/04/30 01:07:46;;;;;;;13.45;6.65;;;;;;;;;;5041333;28;20218;-63
2022/04/30 01:10:12;;;;;;;14.63;6.60;;;;;;;;;;5039970;28;20212;-62
2022/04/30 01:12:37;;;;;;;10.02;6.00;;;;;;;;;;5041395;28;20215;-62
2022/04/30 01:15:04;;;;;;;13.35;6.97;;;;;;;;;;5040614;28;20592;-62
2022/04/30 01:17:30;;;;;;;10.80;6.72;;;;;;;;;;5039083;28;20215;-62
2022/04/30 01:19:55;;;;;;;10.82;6.40;;;;;;;;;;5018953;28;20211;-63
2022/04/30 01:22:24;;;;;;;10.43;6.35;;;;;;;;;;5036467;28;20231;-63
2022/04/30 01:24:49;;;;;;;12.23;6.50;;;;;;;;;;5011414;28;20228;-63
2022/04/30 01:27:16;;;;;;;12.27;6.85;;;;;;;;;;5007071;28;20228;-62
2022/04/30 01:29:41;;;;;;;10.98;6.63;;;;;;;;;;5026172;28;20652;-63
2022/04/30 01:37:36;;;;;;;12.05;6.78;;;;;;;;;;5043938;28;20214;-62
2022/04/30 01:40:03;;;;;;;13.48;7.13;;;;;;;;;;5040022;28;20256;-62
2022/04/30 01:42:30;;;;;;;12.82;6.80;;;;;;;;;;5019124;28;20215;-63
2022/04/30 01:44:55;;;;;;;15.75;7.38;;;;;;;;;;5017881;28;20709;-63
2022/04/30 01:47:21;;;;;;;11.98;7.13;;;;;;;;;;5038769;28;20231;-62
2022/04/30 01:49:46;;;;;;;12.10;7.18;;;;;;;;;;5044561;28;20204;-62
2022/04/30 01:52:13;;;;;;;15.27;7.63;;;;;;;;;;5042871;28;20266;-62
2022/04/30 01:54:39;;;;;;;15.02;8.40;;;;;;;;;;5044137;28;20701;-62
2022/04/30 01:57:04;;;;;;;12.57;7.47;;;;;;;;;;5038033;28;20215;-62
2022/04/30 01:59:30;;;;;;;15.45;7.35;;;;;;;;;;5024189;28;20273;-62
2022/04/30 02:01:55;;;;;;;15.43;7.07;;;;;;;;;;5032502;28;20220;-62
2022/04/30 02:04:21;;;;;;;12.50;7.80;;;;;;;;;;5015090;28;20211;-62
2022/04/30 02:06:46;;;;;;;12.38;8.00;;;;;;;;;;5017517;28;20214;-62
2022/04/30 02:09:12;;;;;;;12.73;7.65;;;;;;;;;;5035930;28;20219;-62
2022/04/30 02:11:38;;;;;;;13.23;7.45;;;;;;;;;;5025170;28;20579;-62
2022/04/30 02:14:03;;;;;;;12.43;8.00;;;;;;;;;;5042524;28;20326;-62
2022/04/30 02:16:28;;;;;;;13.55;7.80;;;;;;;;;;5025941;28;20727;-62
2022/04/30 02:18:54;;;;;;;11.65;6.95;;;;;;;;;;5025684;28;20258;-62
2022/04/30 02:21:21;;;;;;;14.57;8.35;;;;;;;;;;5024591;28;20211;-62
2022/04/30 02:23:47;;;;;;;14.38;8.18;;;;;;;;;;5023956;28;20571;-62
2022/04/30 02:26:13;;;;;;;13.55;7.68;;;;;;;;;;5000641;28;20208;-62
2022/04/30 02:28:38;;;;;;;16.70;8.35;;;;;;;;;;5016682;28;20218;-63
2022/04/30 02:31:03;;;;;;;13.45;7.80;;;;;;;;;;5035204;28;20215;-62
2022/04/30 02:33:29;;;;;;;13.30;7.72;;;;;;;;;;5040178;28;20308;-62
2022/04/30 02:35:57;;;;;;;14.60;8.15;;;;;;;;;;5042365;28;20230;-62
2022/04/30 02:38:24;;;;;;;13.20;7.93;;;;;;;;;;5025314;28;20250;-62
2022/04/30 02:40:50;;;;;;;16.63;8.48;;;;;;;;;;5043421;28;20250;-63
2022/04/30 02:43:19;;;;;;;12.30;8.23;;;;;;;;;;5024241;28;20924;-64
2022/04/30 02:45:44;;;;;;;12.27;7.65;;;;;;;;;;5043159;28;20631;-63
2022/04/30 02:48:12;;;;;;;14.55;8.02;;;;;;;;;;5021303;28;20733;-63
2022/04/30 02:50:37;;;;;;;16.23;8.77;;;;;;;;;;5017907;28;20227;-63
2022/04/30 02:53:03;;;;;;;13.63;7.53;;;;;;;;;;5033913;28;20238;-63
2022/04/30 02:55:28;;;;;;;14.00;8.35;;;;;;;;;;5037030;28;20315;-63
2022/04/30 03:00:39;;;;;;;16.65;8.68;;;;;;;;;;5026863;28;20237;-63
2022/04/30 03:03:04;;;;;;;17.33;8.63;;;;;;;;;;5022008;28;20266;-61
2022/04/30 03:05:31;;;;;;;13.70;8.60;;;;;;;;;;5023210;28;20215;-62
2022/04/30 03:07:56;;;;;;;16.27;7.85;;;;;;;;;;5023366;28;20212;-62
2022/04/30 03:10:22;;;;;;;15.50;7.97;;;;;;;;;;5040029;28;20206;-62
2022/04/30 03:12:53;;;;;;;15.23;8.95;;;;;;;;;;5035000;28;20222;-64
2022/04/30 03:15:21;;;;;;;14.52;8.77;;;;;;;;;;5017391;28;20250;-63
2022/04/30 03:23:14;;;;;;;15.77;9.20;;;;;;;;;;5041718;28;20225;-62
2022/04/30 03:25:40;;;;;;;16.77;8.63;;;;;;;;;;5025241;28;20219;-62
2022/04/30 03:28:05;;;;;;;16.98;8.52;;;;;;;;;;5023204;28;20322;-61
2022/04/30 03:30:31;;;;;;;16.75;8.63;;;;;;;;;;5041396;28;20210;-61
2022/04/30 03:32:57;;;;;;;12.68;8.38;;;;;;;;;;5041749;28;20211;-62
2022/04/30 03:35:22;;;;;;;16.40;8.60;;;;;;;;;;5033877;28;20223;-60
2022/04/30 03:37:47;;;;;;;12.85;7.57;;;;;;;;;;5033694;28;20298;-60
2022/04/30 03:40:14;;;;;;;13.55;8.10;;;;;;;;;;5033963;28;20234;-60
2022/04/30 03:42:39;;;;;;;13.20;7.90;;;;;;;;;;5023809;28;20884;-61
2022/04/30 03:45:05;;;;;;;13.80;8.10;;;;;;;;;;5023074;28;20297;-61
2022/04/30 03:47:30;;;;;;;14.98;8.38;;;;;;;;;;5041896;28;20249;-61
2022/04/30 03:49:55;;;;;;;14.77;8.15;;;;;;;;;;5041891;28;20217;-61
2022/04/30 03:52:21;;;;;;;11.15;7.75;;;;;;;;;;5040703;28;20215;-60
2022/04/30 03:54:47;;;;;;;12.95;8.15;;;;;;;;;;5024148;28;20215;-60
2022/04/30 03:57:12;;;;;;;13.52;7.93;;;;;;;;;;5029296;28;20562;-60
2022/04/30 03:59:37;;;;;;;13.57;8.23;;;;;;;;;;5013731;28;20214;-60
2022/04/30 04:02:03;;;;;;;13.57;8.07;;;;;;;;;;5014481;28;20562;-60
2022/04/30 04:04:28;;;;;;;11.48;7.53;;;;;;;;;;5019834;28;20598;-61
2022/04/30 04:06:54;;;;;;;12.55;8.07;;;;;;;;;;5004120;28;20784;-61
2022/04/30 04:09:19;;;;;;;13.73;7.53;;;;;;;;;;5004536;28;20212;-61
2022/04/30 04:11:44;;;;;;;14.07;8.20;;;;;;;;;;5022142;28;20243;-61
2022/04/30 04:19:37;;;;;;;13.23;7.53;;;;;;;;;;5021039;28;20273;-62
2022/04/30 04:22:03;;;;;;;12.48;7.22;;;;;;;;;;5033215;28;20732;-61
2022/04/30 04:27:12;;;;;;;14.80;7.68;;;;;;;;;;5019919;28;20223;-60
2022/04/30 04:29:37;;;;;;;12.30;7.50;;;;;;;;;;5022253;28;20581;-61
2022/04/30 04:32:03;;;;;;;14.35;7.20;;;;;;;;;;5021746;28;20223;-61
2022/04/30 04:34:28;;;;;;;13.70;8.07;;;;;;;;;;5040727;28;20231;-61
2022/04/30 04:36:53;;;;;;;14.43;7.72;;;;;;;;;;5041583;28;20215;-62
2022/04/30 04:39:18;;;;;;;13.40;7.97;;;;;;;;;;5035155;28;20225;-61
2022/04/30 04:41:44;;;;;;;11.63;7.25;;;;;;;;;;5038165;28;20237;-61
2022/04/30 04:44:09;;;;;;;11.45;7.03;;;;;;;;;;5011648;28;20223;-62
2022/04/30 04:46:35;;;;;;;12.30;6.72;;;;;;;;;;5014292;28;20214;-61
2022/04/30 04:49:00;;;;;;;10.98;6.60;;;;;;;;;;5013359;28;20260;-60
2022/04/30 04:51:27;;;;;;;12.10;7.20;;;;;;;;;;5018148;28;20218;-61
2022/04/30 04:53:52;;;;;;;9.32;6.20;;;;;;;;;;5025408;28;20247;-61
2022/04/30 04:56:17;;;;;;;10.82;6.72;;;;;;;;;;5024557;28;20216;-61
2022/04/30 04:58:43;;;;;;;9.20;6.53;;;;;;;;;;5025847;28;20234;-63
2022/04/30 05:01:08;;;;;;;12.88;6.72;;;;;;;;;;5033837;28;20215;-62
2022/04/30 05:03:33;;;;;;;9.30;6.25;;;;;;;;;;5025147;28;20310;-62
2022/04/30 05:05:58;;;;;;;9.35;5.68;;;;;;;;;;5023433;28;20211;-62
2022/04/30 05:08:24;;;;;;;13.93;6.50;;;;;;;;;;5017542;28;20895;-62
2022/04/30 05:10:49;;;;;;;11.18;5.95;;;;;;;;;;5016685;28;20215;-62
2022/04/30 05:13:14;;;;;;;9.57;5.90;;;;;;;;;;5037836;28;20226;-61
2022/04/30 05:15:40;;;;;;;11.30;6.25;;;;;;;;;;5043459;28;20419;-61
2022/04/30 05:18:05;;;;;;;10.60;6.18;;;;;;;;;;5022345;28;20262;-61
2022/04/30 05:20:32;;;;;;;11.68;6.65;;;;;;;;;;5020116;28;20269;-61
2022/04/30 05:22:57;;;;;;;8.80;5.50;;;;;;;;;;5024132;28;20234;-62
2022/04/30 05:25:22;;;;;;;11.05;5.80;;;;;;;;;;5025981;28;20207;-62
2022/04/30 05:27:47;;;;;;;11.20;5.90;;;;;;;;;;5025075;28;20549;-61
2022/04/30 05:30:13;;;;;;;8.77;5.13;;;;;;;;;;5017384;28;20315;-62
2022/04/30 05:32:38;;;;;;;10.50;6.07;;;;;;;;;;5016821;28;20243;-61
2022/04/30 05:35:04;;;;;;;7.90;5.40;;;;;;;;;;5017262;28;20227;-60
2022/04/30 05:37:29;;;;;;;8.65;5.00;;;;;;;;;;5022055;28;20216;-63
2022/04/30 05:39:54;;;;;;;8.85;4.90;;;;;;;;;;5044020;28;20653;-61
2022/04/30 05:42:19;;;;;;;8.93;5.50;;;;;;;;;;5043812;28;20585;-63
2022/04/30 05:44:45;;;;;;;10.98;5.65;;;;;;;;;;5043413;28;20206;-62
2022/04/30 05:47:10;;;;;;;10.38;5.13;;;;;;;;;;5043993;28;20712;-60
2022/04/30 05:49:35;;;;;;;10.68;5.10;;;;;;;;;;5043913;28;20215;-61
2022/04/30 05:52:01;;;;;;;7.25;5.32;;;;;;;;;;5032000;28;20238;-60
2022/04/30 05:54:28;;;;;;;9.02;5.20;;;;;;;;;;5031066;28;20293;-61
2022/04/30 05:56:53;;;;;;;11.80;5.00;;;;;;;;;;5032111;28;20239;-61
2022/04/30 05:59:18;;;;;;;8.43;4.75;;;;;;;;;;5019077;28;20247;-60
2022/04/30 06:01:44;;;;;;;7.88;5.13;;;;;;;;;;5024594;28;20212;-62
2022/04/30 06:04:09;;;;;;;11.52;5.47;;;;;;;;;;5023200;28;20302;-62
2022/04/30 06:06:34;;;;;;;10.50;5.38;;;;;;;;;;5043183;28;20807;-62
2022/04/30 06:08:59;;;;;;;12.77;5.20;;;;;;;;;;5043614;28;20247;-59
2022/04/30 06:11:25;;;;;;;9.73;6.75;;;;;;;;;;5043301;28;20712;-59
2022/04/30 06:13:50;;;;;;;13.95;9.63;;;;;;;;;;5041586;28;20288;-69
2022/04/30 06:16:16;;;;;;;12.43;6.10;;;;;;;;;;5035321;28;20235;-70
2022/04/30 06:18:42;;;;;;;9.43;4.68;;;;;;;;;;5035864;28;20211;-67
2022/04/30 06:21:07;;;;;;;15.35;4.90;;;;;;;;;;5035235;28;20669;-68
2022/04/30 06:23:33;;;;;;;10.88;5.20;;;;;;;;;;5025021;28;20219;-69
2022/04/30 06:25:58;;;;;;;9.32;4.90;;;;;;;;;;5025521;28;20216;-68
2022/04/30 06:28:23;;;;;;;9.27;4.65;;;;;;;;;;5030647;28;20635;-68
2022/04/30 06:30:48;;;;;;;13.50;4.22;;;;;;;;;;5023680;28;20227;-69
2022/04/30 06:33:14;;;;;;;11.02;4.00;;;;;;;;;;5022134;28;20220;-69
2022/04/30 06:35:39;;;;;;;10.13;3.97;;;;;;;;;;5021593;28;20223;-69
2022/04/30 06:38:04;;;;;;;10.82;4.22;;;;;;;;;;5015784;28;20792;-69
2022/04/30 06:40:31;;;;;;;9.90;4.35;;;;;;;;;;4997282;28;21036;-68
2022/04/30 06:42:56;;;;;;;5.53;3.17;;;;;;;;;;5015723;28;20219;-69
2022/04/30 06:45:22;;;;;;;10.20;4.50;;;;;;;;;;5003163;28;20215;-70
2022/04/30 06:47:47;;;;;;;9.35;4.90;;;;;;;;;;5022701;28;20656;-68
2022/04/30 06:50:12;;;;;;;8.10;4.07;;;;;;;;;;5023291;28;20212;-65
2022/04/30 06:57:07;;;;;;;10.65;4.60;;;;;;;;;;5023227;28;20281;-66
2022/04/30 06:58:07;;;;;;;8.73;4.10;;;;;;;;;;5028076;28;20230;-64
2022/04/30 07:01:26;;;;;;;9.70;3.72;;;;;;;;;;5020053;28;20686;-60
2022/04/30 07:03:26;;;;;;;8.70;4.10;;;;;;;;;;5048487;28;20275;-62
2022/04/30 07:05:52;;;;;;;7.13;3.70;;;;;;;;;;5053264;28;20302;-63
2022/04/30 07:08:17;;;;;;;11.20;3.47;;;;;;;;;;5051286;28;20246;-63
2022/04/30 07:10:42;;;;;;;7.25;4.18;;;;;;;;;;5052219;28;20290;-62
2022/04/30 07:13:08;;;;;;;8.45;3.97;;;;;;;;;;5052537;28;20268;-62
2022/04/30 07:15:33;;;;;;;9.27;3.92;;;;;;;;;;5051437;28;20265;-63
2022/04/30 07:17:58;;;;;;;7.50;3.72;;;;;;;;;;5052828;28;20207;-62
2022/04/30 07:20:23;;;;;;;7.10;3.70;;;;;;;;;;5052534;28;20203;-62
2022/04/30 07:22:49;;;;;;;8.00;3.58;;;;;;;;;;5051822;28;20260;-62
2022/04/30 07:25:14;;;;;;;9.70;3.70;;;;;;;;;;5049320;28;20219;-62
2022/04/30 07:27:39;;;;;;;8.55;3.80;;;;;;;;;;5015921;28;20615;-61
2022/04/30 07:30:05;;;;;;;12.00;3.63;;;;;;;;;;5031801;28;20211;-61
2022/04/30 07:32:30;;;;;;;6.75;3.47;;;;;;;;;;5032657;28;20203;-62
2022/04/30 07:34:56;;;;;;;12.88;3.88;;;;;;;;;;5014896;28;20713;-63
2022/04/30 07:37:21;;;;;;;5.47;2.50;;;;;;;;;;5031144;28;20243;-63
2022/04/30 07:39:46;;;;;;;8.88;2.97;;;;;;;;;;5032686;28;20245;-63
2022/04/30 07:42:11;;;;;;;5.07;2.78;;;;;;;;;;5031888;28;20207;-62
2022/04/30 07:44:37;;;;;;;7.25;2.95;;;;;;;;;;5031941;28;20215;-62
2022/04/30 07:47:02;;;;;;;6.53;2.70;;;;;;;;;;5030426;28;20216;-62
2022/04/30 07:49:27;;;;;;;10.15;3.58;;;;;;;;;;5032532;28;20674;-62
2022/04/30 07:51:55;;;;;;;6.43;3.00;;;;;;;;;;5031736;28;20235;-62
2022/04/30 07:54:20;;;;;;;5.93;3.45;;;;;;;;;;5031476;28;21437;-62
2022/04/30 07:56:47;;;;;;;4.75;2.70;;;;;;;;;;5035573;28;20235;-62
2022/04/30 07:59:12;;;;;;;5.80;2.72;;;;;;;;;;5050921;28;20235;-62
2022/04/30 08:01:37;;;;;;;8.52;3.00;;;;;;;;;;5044426;28;20272;-62
2022/04/30 08:04:02;;;;;;;10.10;4.03;;;;;;;;;;5047673;28;20583;-61
2022/04/30 08:06:28;;;;;;;5.07;2.63;;;;;;;;;;5035518;28;20697;-61
2022/04/30 08:08:53;;;;;;;6.57;3.30;;;;;;;;;;5032175;28;20290;-62
2022/04/30 08:11:18;;;;;;;7.88;3.00;;;;;;;;;;5051419;28;20222;-61
2022/04/30 08:13:44;;;;;;;3.85;2.00;;;;;;;;;;5051105;28;20215;-62
2022/04/30 08:16:10;;;;;;;4.28;2.00;;;;;;;;;;5051719;28;20215;-61
2022/04/30 08:18:36;;;;;;;3.40;1.77;;;;;;;;;;5051748;28;20222;-62
2022/04/30 08:21:02;;;;;;;4.63;1.70;;;;;;;;;;5050836;28;20269;-62
2022/04/30 08:23:27;;;;;;;2.95;1.75;;;;;;;;;;5051642;28;20607;-62
2022/04/30 08:25:53;;;;;;;4.18;2.45;;;;;;;;;;5051796;28;20579;-62
2022/04/30 08:28:18;;;;;;;4.80;2.50;;;;;;;;;;5055594;28;20296;-62
2022/04/30 08:30:43;;;;;;;5.30;2.60;;;;;;;;;;5056157;28;20199;-62
2022/04/30 08:33:09;;;;;;;6.57;2.75;;;;;;;;;;5054300;28;20226;-62
2022/04/30 08:35:34;;;;;;;6.10;2.65;;;;;;;;;;5038055;28;20272;-62
2022/04/30 08:37:59;;;;;;;6.53;3.10;;;;;;;;;;5037683;28;20203;-62
2022/04/30 08:40:25;;;;;;;5.22;2.50;;;;;;;;;;5036660;28;20591;-62
2022/04/30 08:42:50;;;;;;;5.55;2.72;;;;;;;;;;5055931;28;20716;-62
2022/04/30 08:45:16;;;;;;;4.90;2.80;;;;;;;;;;5055392;28;20226;-62
2022/04/30 08:47:42;;;;;;;5.60;2.40;;;;;;;;;;5055005;28;20207;-62
2022/04/30 08:50:08;;;;;;;6.22;2.65;;;;;;;;;;5055100;28;20211;-62
2022/04/30 08:52:33;;;;;;;7.78;3.63;;;;;;;;;;5055097;28;20230;-62
2022/04/30 08:54:58;;;;;;;6.95;3.10;;;;;;;;;;5050721;28;20281;-63
2022/04/30 08:57:24;;;;;;;7.30;3.40;;;;;;;;;;5046684;28;20204;-62
2022/04/30 08:59:50;;;;;;;8.07;3.38;;;;;;;;;;5017993;28;20377;-62
2022/04/30 09:02:15;;;;;;;8.52;3.80;;;;;;;;;;5048328;28;20222;-62
2022/04/30 09:04:43;;;;;;;7.25;3.20;;;;;;;;;;5055145;28;20207;-61
2022/04/30 09:07:11;;;;;;;6.60;3.42;;;;;;;;;;5054349;28;20225;-63
2022/04/30 09:09:37;;;;;;;7.15;3.40;;;;;;;;;;5036802;28;20333;-62
2022/04/30 09:12:05;;;;;;;5.25;3.25;;;;;;;;;;5054917;28;20207;-62
2022/04/30 09:14:31;;;;;;;6.00;3.10;;;;;;;;;;5053194;28;20223;-62
2022/04/30 09:17:03;;;;;;;7.55;3.45;;;;;;;;;;5054890;28;20253;-63
2022/04/30 09:19:28;;;;;;;7.78;3.55;;;;;;;;;;5054702;28;20552;-63
2022/04/30 09:21:54;;;;;;;5.55;3.25;;;;;;;;;;5054964;28;20215;-63
2022/04/30 09:24:19;;;;;;;5.05;2.88;;;;;;;;;;5053821;28;20215;-62
2022/04/30 09:26:44;;;;;;;7.50;3.60;;;;;;;;;;5037263;28;20215;-63
2022/04/30 09:29:20;;;;;;;6.65;3.30;;;;;;;;;;5035851;28;20297;-62
2022/04/30 09:31:50;;;;;;;7.65;3.83;;;;;;;;;;5037289;28;20215;-62
2022/04/30 09:39:45;;;;;;;8.93;3.22;;;;;;;;;;5039279;28;20215;-62
2022/04/30 09:42:10;;;;;;;8.20;3.50;;;;;;;;;;5054585;28;20298;-62
2022/04/30 09:44:37;;;;;;;7.40;3.53;;;;;;;;;;5053967;28;20302;-62
2022/04/30 09:47:02;;;;;;;6.80;3.40;;;;;;;;;;5054417;28;20211;-60
2022/04/30 09:54:55;;;;;;;9.70;3.45;;;;;;;;;;5051544;28;20277;-61
2022/04/30 09:57:21;;;;;;;7.00;3.20;;;;;;;;;;5045437;28;20614;-61
2022/04/30 09:59:46;;;;;;;8.20;3.58;;;;;;;;;;5053104;28;20230;-61
2022/04/30 10:02:12;;;;;;;5.88;3.38;;;;;;;;;;5040534;28;20219;-59
2022/04/30 10:04:37;;;;;;;9.20;3.45;;;;;;;;;;5033734;28;20220;-60
2022/04/30 10:07:03;;;;;;;5.60;3.35;;;;;;;;;;5034011;28;20243;-61
2022/04/30 10:09:30;;;;;;;6.25;3.10;;;;;;;;;;5034589;28;20207;-60
2022/04/30 10:11:55;;;;;;;10.32;3.53;;;;;;;;;;5032488;28;20216;-61
2022/04/30 10:14:24;;;;;;;7.13;3.30;;;;;;;;;;5035695;28;20223;-61
2022/04/30 10:19:34;;;;;;;8.52;3.97;;;;;;;;;;5051112;28;20357;-61
2022/04/30 10:22:15;;;;;;;8.35;3.70;;;;;;;;;;5053849;28;20656;-60
2022/04/30 10:24:41;;;;;;;8.52;3.80;;;;;;;;;;5035831;28;20284;-60
2022/04/30 10:27:06;;;;;;;6.72;3.33;;;;;;;;;;5034954;28;20238;-60
2022/04/30 10:29:31;;;;;;;7.88;3.88;;;;;;;;;;5036324;28;20203;-61
2022/04/30 10:31:57;;;;;;;8.30;3.80;;;;;;;;;;5053765;28;20219;-60
2022/04/30 10:34:31;;;;;;;6.80;3.20;;;;;;;;;;5052447;28;20800;-61
2022/04/30 10:37:00;;;;;;;7.80;3.65;;;;;;;;;;5053434;28;20677;-60
2022/04/30 10:39:25;;;;;;;8.07;3.50;;;;;;;;;;5052631;28;20650;-61
2022/04/30 10:41:52;;;;;;;8.43;3.40;;;;;;;;;;5036092;28;20337;-61
2022/04/30 10:44:32;;;;;;;7.00;4.18;;;;;;;;;;5053453;28;20353;-61
2022/04/30 10:47:07;;;;;;;6.57;4.10;;;;;;;;;;5052813;28;20289;-68
2022/04/30 10:49:33;;;;;;;7.25;4.53;;;;;;;;;;5053345;28;20214;-69
2022/04/30 10:51:58;;;;;;;16.23;5.13;;;;;;;;;;5052611;28;20213;-67
2022/04/30 10:54:23;;;;;;;8.45;4.20;;;;;;;;;;5014758;28;20228;-65
2022/04/30 10:56:59;;;;;;;7.90;4.30;;;;;;;;;;5011275;28;20561;-66
2022/04/30 10:59:26;;;;;;;9.02;4.63;;;;;;;;;;5007892;28;20291;-66
2022/04/30 11:01:51;;;;;;;9.68;4.50;;;;;;;;;;5023696;28;20216;-66
2022/04/30 11:04:16;;;;;;;9.63;4.40;;;;;;;;;;5032826;28;20223;-65
2022/04/30 11:06:42;;;;;;;7.88;4.55;;;;;;;;;;5032914;28;20621;-65
2022/04/30 11:09:07;;;;;;;10.52;4.20;;;;;;;;;;5014407;28;20280;-64
2022/04/30 11:11:33;;;;;;;9.15;4.65;;;;;;;;;;5033479;28;20207;-69
2022/04/30 11:14:06;;;;;;;8.63;4.65;;;;;;;;;;5030839;28;20224;-66
2022/04/30 11:16:32;;;;;;;9.88;4.30;;;;;;;;;;5033862;28;20207;-66
2022/04/30 11:18:58;;;;;;;10.38;4.47;;;;;;;;;;5051211;28;20303;-72
2022/04/30 11:21:28;;;;;;;9.68;4.60;;;;;;;;;;5052425;28;20642;-68
2022/04/30 11:23:54;;;;;;;7.35;4.07;;;;;;;;;;5049935;28;20571;-68
2022/04/30 11:26:19;;;;;;;8.40;4.25;;;;;;;;;;5052050;28;20282;-68
2022/04/30 11:28:46;;;;;;;7.15;4.35;;;;;;;;;;5033843;28;20207;-66
2022/04/30 11:31:12;;;;;;;8.02;4.07;;;;;;;;;;5048860;28;20286;-67
2022/04/30 11:33:37;;;;;;;8.98;4.10;;;;;;;;;;5034044;28;20298;-65
2022/04/30 11:36:03;;;;;;;7.13;4.05;;;;;;;;;;5049569;28;20207;-65
2022/04/30 11:38:28;;;;;;;7.43;3.53;;;;;;;;;;5048423;28;20560;-66
2022/04/30 11:41:04;;;;;;;7.32;3.95;;;;;;;;;;5052008;28;20211;-67
2022/04/30 11:43:29;;;;;;;7.68;3.90;;;;;;;;;;5031824;28;20700;-67
2022/04/30 11:46:00;;;;;;;7.25;3.63;;;;;;;;;;5052160;28;20207;-61
2022/04/30 11:48:27;;;;;;;7.40;3.50;;;;;;;;;;5051775;28;20290;-61
2022/04/30 11:50:52;;;;;;;9.75;3.85;;;;;;;;;;5050069;28;20698;-61
2022/04/30 11:53:18;;;;;;;6.93;3.67;;;;;;;;;;5040312;28;20258;-61
2022/04/30 11:55:43;;;;;;;7.40;3.28;;;;;;;;;;5031465;28;20243;-61
2022/04/30 11:58:08;;;;;;;5.85;3.50;;;;;;;;;;5016579;28;20212;-61
2022/04/30 12:00:33;;;;;;;7.55;3.65;;;;;;;;;;5016272;28;20559;-61
2022/04/30 12:02:59;;;;;;;9.68;3.50;;;;;;;;;;5040046;28;20276;-61
2022/04/30 12:05:24;;;;;;;6.28;3.40;;;;;;;;;;5033407;28;20203;-61
2022/04/30 12:07:49;;;;;;;6.65;3.05;;;;;;;;;;5051960;28;20561;-60
2022/04/30 12:10:15;;;;;;;6.20;3.45;;;;;;;;;;5051753;28;20218;-62
2022/04/30 12:12:41;;;;;;;8.00;3.50;;;;;;;;;;5046619;28;20226;-61
2022/04/30 12:15:15;;;;;;;5.45;3.30;;;;;;;;;;5031665;28;20224;-61
2022/04/30 12:17:41;;;;;;;6.30;3.17;;;;;;;;;;5031941;28;20627;-61
2022/04/30 12:25:43;;;;;;;6.13;2.80;;;;;;;;;;5031082;28;20207;-61
2022/04/30 12:28:11;;;;;;;5.60;2.97;;;;;;;;;;5031897;28;20220;-60
2022/04/30 12:30:36;;;;;;;4.75;2.90;;;;;;;;;;5029330;28;20204;-61
2022/04/30 12:33:03;;;;;;;7.28;3.63;;;;;;;;;;5022457;28;20262;-61
2022/04/30 12:35:30;;;;;;;6.15;3.10;;;;;;;;;;5036813;28;20227;-61
2022/04/30 12:38:07;;;;;;;5.07;2.70;;;;;;;;;;5019557;28;20219;-60
2022/04/30 12:40:33;;;;;;;5.50;2.50;;;;;;;;;;5014364;28;20242;-61
2022/04/30 12:42:58;;;;;;;7.10;2.92;;;;;;;;;;5039937;28;20708;-60
2022/04/30 12:45:24;;;;;;;8.85;3.17;;;;;;;;;;5045814;28;20215;-60
2022/04/30 12:47:50;;;;;;;5.35;2.63;;;;;;;;;;5044441;28;20203;-60
2022/04/30 12:50:15;;;;;;;5.40;2.58;;;;;;;;;;5045466;28;20605;-61
2022/04/30 12:52:40;;;;;;;5.13;2.60;;;;;;;;;;5040439;28;20219;-61
2022/04/30 12:55:06;;;;;;;5.22;2.60;;;;;;;;;;5042483;28;20268;-61
2022/04/30 12:57:31;;;;;;;4.55;2.80;;;;;;;;;;5037591;28;20786;-61
2022/04/30 12:59:56;;;;;;;7.43;3.30;;;;;;;;;;5038093;28;20219;-61
2022/04/30 13:02:22;;;;;;;3.67;2.65;;;;;;;;;;5036931;28;20567;-61
2022/04/30 13:04:48;;;;;;;5.50;3.13;;;;;;;;;;5045712;28;20222;-61
2022/04/30 13:07:13;;;;;;;4.95;2.97;;;;;;;;;;5044685;28;20211;-61
2022/04/30 13:15:06;;;;;;;5.63;2.97;;;;;;;;;;5048079;28;20249;-61
2022/04/30 13:17:32;;;;;;;6.53;2.80;;;;;;;;;;5048640;28;20586;-61
2022/04/30 13:19:57;;;;;;;4.97;2.70;;;;;;;;;;5042258;28;20674;-61
2022/04/30 13:22:22;;;;;;;6.05;2.83;;;;;;;;;;5039995;28;20238;-61
2022/04/30 13:24:48;;;;;;;5.20;3.10;;;;;;;;;;5060141;28;20202;-61
2022/04/30 13:27:13;;;;;;;5.13;2.80;;;;;;;;;;5067540;28;20206;-61
2022/04/30 13:29:38;;;;;;;5.05;2.55;;;;;;;;;;5068091;28;20297;-61
2022/04/30 13:32:03;;;;;;;13.15;2.88;;;;;;;;;;5057777;28;20636;-61
2022/04/30 13:34:29;;;;;;;5.18;2.42;;;;;;;;;;5049355;28;20233;-61
2022/04/30 13:36:54;;;;;;;5.03;2.17;;;;;;;;;;5048076;28;20206;-62
2022/04/30 13:39:19;;;;;;;4.72;2.25;;;;;;;;;;5029927;28;21247;-62
2022/04/30 13:41:45;;;;;;;5.13;2.22;;;;;;;;;;5043585;28;20229;-62
2022/04/30 13:44:10;;;;;;;4.70;2.40;;;;;;;;;;5039805;28;20219;-61
2022/04/30 13:46:36;;;;;;;4.82;2.20;;;;;;;;;;5040492;28;20242;-62
2022/04/30 13:49:03;;;;;;;4.70;2.38;;;;;;;;;;5027205;28;20309;-62
2022/04/30 13:51:28;;;;;;;6.07;3.05;;;;;;;;;;5048365;28;20207;-62
2022/04/30 13:53:54;;;;;;;8.15;2.75;;;;;;;;;;5048602;28;20664;-62
2022/04/30 13:56:20;;;;;;;4.38;2.40;;;;;;;;;;5047318;28;20298;-61
2022/04/30 13:58:46;;;;;;;4.00;2.17;;;;;;;;;;5047837;28;20654;-62
2022/04/30 14:01:12;;;;;;;5.88;2.20;;;;;;;;;;5016678;28;20215;-62
2022/04/30 14:03:37;;;;;;;7.55;1.92;;;;;;;;;;5042119;28;20211;-61
2022/04/30 14:06:03;;;;;;;4.78;2.10;;;;;;;;;;5041024;28;20226;-62
2022/04/30 14:08:28;;;;;;;4.32;2.22;;;;;;;;;;5005047;28;20609;-61
2022/04/30 14:10:54;;;;;;;3.38;2.00;;;;;;;;;;5024619;28;20329;-62
2022/04/30 14:16:03;;;;;;;5.47;2.20;;;;;;;;;;5026912;28;20238;-62
2022/04/30 14:18:29;;;;;;;5.18;2.00;;;;;;;;;;5028119;28;20226;-62
2022/04/30 14:20:54;;;;;;;4.43;1.90;;;;;;;;;;5028110;28;20215;-62
2022/04/30 14:23:21;;;;;;;5.65;2.03;;;;;;;;;;5028053;28;20573;-61
2022/04/30 14:25:46;;;;;;;8.63;2.10;;;;;;;;;;5025942;28;20714;-60
2022/04/30 14:28:12;;;;;;;4.32;2.20;;;;;;;;;;5020151;28;20222;-61
2022/04/30 14:30:38;;;;;;;6.03;2.88;;;;;;;;;;5018140;28;20670;-61
2022/04/30 14:33:04;;;;;;;5.10;2.70;;;;;;;;;;5020384;28;20340;-61
2022/04/30 14:35:30;;;;;;;5.70;3.35;;;;;;;;;;5024204;28;20558;-60
2022/04/30 14:37:56;;;;;;;9.23;3.40;;;;;;;;;;5024270;28;20686;-61
2022/04/30 14:40:21;;;;;;;7.15;3.58;;;;;;;;;;5026161;28;20721;-61
2022/04/30 14:42:48;;;;;;;6.20;3.55;;;;;;;;;;5027739;28;20667;-61
2022/04/30 14:45:14;;;;;;;6.82;3.63;;;;;;;;;;5027775;28;20679;-61
2022/04/30 14:47:40;;;;;;;6.22;3.28;;;;;;;;;;5025728;28;20285;-62
2022/04/30 14:50:05;;;;;;;4.97;2.97;;;;;;;;;;5020588;28;20747;-61
2022/04/30 14:52:31;;;;;;;5.07;3.03;;;;;;;;;;5019415;28;20215;-60
2022/04/30 14:54:57;;;;;;;4.22;2.83;;;;;;;;;;5019629;28;20641;-60
2022/04/30 14:57:22;;;;;;;6.17;3.00;;;;;;;;;;5025407;28;20432;-61
2022/04/30 14:59:47;;;;;;;5.90;2.90;;;;;;;;;;5025114;28;20429;-61
2022/04/30 15:02:12;;;;;;;5.90;2.60;;;;;;;;;;5027119;28;20219;-60
2022/04/30 15:04:38;;;;;;;4.90;2.47;;;;;;;;;;5027654;28;20686;-59
2022/04/30 15:07:03;;;;;;;6.03;2.58;;;;;;;;;;5026569;28;20335;-62
2022/04/30 15:09:29;;;;;;;5.25;2.25;;;;;;;;;;5026064;28;20793;-62
2022/04/30 15:11:54;;;;;;;6.50;2.40;;;;;;;;;;5023638;28;20215;-62
2022/04/30 15:14:19;;;;;;;4.22;2.20;;;;;;;;;;5018335;28;20220;-62
2022/04/30 15:16:45;;;;;;;3.38;2.30;;;;;;;;;;5019345;28;20223;-61
2022/04/30 15:19:11;;;;;;;3.75;2.10;;;;;;;;;;5020995;28;20215;-61
2022/04/30 15:21:36;;;;;;;4.35;2.30;;;;;;;;;;5026825;28;20219;-61
2022/04/30 15:24:01;;;;;;;4.15;2.40;;;;;;;;;;5026743;28;20208;-61